createdAt,value
2017-11-28T00:00:47.731Z,4.43
2017-11-28T00:03:15.066Z,2.50
2017-11-28T00:05:42.747Z,2.60
2017-11-28T00:08:10.045Z,2.97
2017-11-28T00:10:37.661Z,2.30
2017-11-28T00:13:05.306Z,2.43
2017-11-28T00:15:32.669Z,2.07
2017-11-28T00:18:04.052Z,2.30
2017-11-28T00:20:31.678Z,1.67
2017-11-28T00:22:59.318Z,2.20
2017-11-28T00:25:26.788Z,2.10
2017-11-28T00:27:54.129Z,2.30
2017-11-28T00:30:21.428Z,2.13
2017-11-28T00:32:49.045Z,2.50
2017-11-28T00:35:16.370Z,2.20
2017-11-28T00:37:43.959Z,2.30
2017-11-28T00:40:11.386Z,1.80
2017-11-28T00:42:38.683Z,2.47
2017-11-28T00:45:06.438Z,1.93
2017-11-28T00:47:33.751Z,1.87
2017-11-28T00:50:01.149Z,2.03
2017-11-28T00:52:28.826Z,1.90
2017-11-28T00:54:56.133Z,2.30
2017-11-28T00:57:23.458Z,2.10
2017-11-28T00:59:51.073Z,1.70
2017-11-28T01:02:18.404Z,3.33
2017-11-28T01:04:45.694Z,2.47
2017-11-28T01:07:13.362Z,2.70
2017-11-28T01:09:40.657Z,2.37
2017-11-28T01:12:08.186Z,2.77
2017-11-28T01:14:35.544Z,2.37
2017-11-28T01:17:02.840Z,1.83
2017-11-28T01:19:30.137Z,2.70
2017-11-28T01:21:57.454Z,2.30
2017-11-28T01:24:25.310Z,2.20
2017-11-28T01:26:52.626Z,3.53
2017-11-28T01:29:20.284Z,2.53
2017-11-28T01:31:47.589Z,1.97
2017-11-28T01:34:15.262Z,1.80
2017-11-28T01:36:42.580Z,2.20
2017-11-28T01:39:10.201Z,2.20
2017-11-28T01:41:37.502Z,1.90
2017-11-28T01:44:04.819Z,2.43
2017-11-28T01:46:32.180Z,2.27
2017-11-28T01:48:59.834Z,2.73
2017-11-28T01:51:27.131Z,3.30
2017-11-28T01:53:54.431Z,1.80
2017-11-28T01:56:21.729Z,2.07
2017-11-28T01:58:49.111Z,2.60
2017-11-28T02:01:16.401Z,2.40
2017-11-28T02:03:43.717Z,2.43
2017-11-28T02:06:11.002Z,2.50
2017-11-28T02:08:38.652Z,3.00
2017-11-28T02:11:05.999Z,2.43
2017-11-28T02:13:33.673Z,2.30
2017-11-28T02:16:00.965Z,2.70
2017-11-28T02:18:28.320Z,2.43
2017-11-28T02:20:55.923Z,2.63
2017-11-28T02:23:23.254Z,2.70
2017-11-28T02:25:50.582Z,2.17
2017-11-28T02:28:18.905Z,2.67
2017-11-28T02:30:46.215Z,2.73
2017-11-28T02:33:13.717Z,2.03
2017-11-28T02:35:41.028Z,2.80
2017-11-28T02:38:08.335Z,3.40
2017-11-28T02:40:41.918Z,2.63
2017-11-28T02:43:09.760Z,2.10
2017-11-28T02:45:37.089Z,2.17
2017-11-28T02:48:04.373Z,2.60
2017-11-28T02:50:31.702Z,2.60
2017-11-28T02:52:59.581Z,2.13
2017-11-28T02:55:29.811Z,2.23
2017-11-28T02:57:57.744Z,2.13
2017-11-28T03:00:25.394Z,2.93
2017-11-28T03:02:52.689Z,2.13
2017-11-28T03:05:20.299Z,4.93
2017-11-28T03:07:48.377Z,2.07
2017-11-28T03:10:15.696Z,2.17
2017-11-28T03:12:44.181Z,2.47
2017-11-28T03:15:12.105Z,2.30
2017-11-28T03:17:39.740Z,3.07
2017-11-28T03:20:11.761Z,1.90
2017-11-28T03:22:39.078Z,2.43
2017-11-28T03:25:23.360Z,2.10
2017-11-28T03:27:51.489Z,2.73
2017-11-28T03:30:19.502Z,2.27
2017-11-28T03:32:46.806Z,2.10
2017-11-28T03:35:14.118Z,2.00
2017-11-28T03:37:41.405Z,2.23
2017-11-28T03:40:08.717Z,2.23
2017-11-28T03:42:36.010Z,2.50
2017-11-28T03:45:20.133Z,2.30
2017-11-28T03:47:47.425Z,3.77
2017-11-28T03:50:14.718Z,2.50
2017-11-28T03:52:42.025Z,2.77
2017-11-28T03:55:09.322Z,3.40
2017-11-28T03:57:36.650Z,3.23
2017-11-28T04:00:04.272Z,2.37
2017-11-28T04:02:31.948Z,2.47
2017-11-28T04:04:59.733Z,2.77
2017-11-28T04:07:27.402Z,2.70
2017-11-28T04:09:55.019Z,2.67
2017-11-28T04:12:22.704Z,2.50
2017-11-28T04:14:49.989Z,3.20
2017-11-28T04:17:17.473Z,3.47
2017-11-28T04:19:44.765Z,3.47
2017-11-28T04:22:12.070Z,2.23
2017-11-28T04:24:39.361Z,2.20
2017-11-28T04:27:06.677Z,2.83
2017-11-28T04:29:33.973Z,2.50
2017-11-28T04:32:01.433Z,2.50
2017-11-28T04:34:29.077Z,2.40
2017-11-28T04:36:56.781Z,2.97
2017-11-28T04:39:24.406Z,2.40
2017-11-28T04:41:51.730Z,2.70
2017-11-28T04:44:19.093Z,2.77
2017-11-28T04:46:46.477Z,3.00
2017-11-28T04:49:13.809Z,2.60
2017-11-28T04:51:41.095Z,2.83
2017-11-28T04:54:08.436Z,2.37
2017-11-28T04:56:47.523Z,2.57
2017-11-28T04:59:15.129Z,2.70
2017-11-28T05:01:42.421Z,3.77
2017-11-28T05:04:10.061Z,3.07
2017-11-28T05:06:37.895Z,2.97
2017-11-28T05:09:06.129Z,3.73
2017-11-28T05:11:33.925Z,3.40
2017-11-28T05:14:01.283Z,2.50
2017-11-28T05:16:28.734Z,2.83
2017-11-28T05:18:56.621Z,3.20
2017-11-28T05:21:24.493Z,3.83
2017-11-28T05:23:52.350Z,6.00
2017-11-28T05:26:21.137Z,4.20
2017-11-28T05:28:48.510Z,5.30
2017-11-28T05:31:15.826Z,2.70
2017-11-28T05:33:43.112Z,3.10
2017-11-28T05:36:10.425Z,4.67
2017-11-28T05:38:37.735Z,3.20
2017-11-28T05:41:05.614Z,3.97
2017-11-28T05:43:33.421Z,3.10
2017-11-28T05:46:01.323Z,4.47
2017-11-28T05:48:29.466Z,5.03
2017-11-28T05:50:56.781Z,3.83
2017-11-28T05:53:24.585Z,3.53
2017-11-28T05:55:52.474Z,3.50
2017-11-28T05:58:19.818Z,3.60
2017-11-28T06:00:47.966Z,3.67
2017-11-28T06:03:15.259Z,3.67
2017-11-28T06:05:42.570Z,4.17
2017-11-28T06:08:19.779Z,3.50
2017-11-28T06:10:47.101Z,4.30
2017-11-28T06:13:14.456Z,3.60
2017-11-28T06:15:42.060Z,4.47
2017-11-28T06:18:09.618Z,5.10
2017-11-28T06:20:37.271Z,5.13
2017-11-28T06:23:04.945Z,5.50
2017-11-28T06:25:32.292Z,6.70
2017-11-28T06:27:59.680Z,4.37
2017-11-28T06:30:26.979Z,4.10
2017-11-28T06:32:54.495Z,4.93
2017-11-28T06:35:22.130Z,4.23
2017-11-28T06:37:49.435Z,3.60
2017-11-28T06:40:17.396Z,5.23
2017-11-28T06:42:45.031Z,7.90
2017-11-28T06:45:12.668Z,3.83
2017-11-28T06:47:40.118Z,5.20
2017-11-28T06:50:07.413Z,4.77
2017-11-28T06:52:35.033Z,3.73
2017-11-28T06:55:02.405Z,6.60
2017-11-28T06:57:29.701Z,5.73
2017-11-28T07:00:04.609Z,4.10
2017-11-28T07:02:32.325Z,4.60
2017-11-28T07:04:59.950Z,4.33
2017-11-28T07:07:27.606Z,5.07
2017-11-28T07:09:55.230Z,4.60
2017-11-28T07:12:22.545Z,4.27
2017-11-28T07:14:50.261Z,5.30
2017-11-28T07:17:17.921Z,5.20
2017-11-28T07:19:45.566Z,6.87
2017-11-28T07:22:12.866Z,6.87
2017-11-28T07:24:40.485Z,8.47
2017-11-28T07:27:07.813Z,8.87
2017-11-28T07:29:35.493Z,5.70
2017-11-28T07:32:02.784Z,5.40
2017-11-28T07:34:30.113Z,5.37
2017-11-28T07:36:57.415Z,4.27
2017-11-28T07:39:24.784Z,5.10
2017-11-28T07:41:52.078Z,5.83
2017-11-28T07:44:19.379Z,4.70
2017-11-28T07:46:46.690Z,5.97
2017-11-28T07:49:14.325Z,5.77
2017-11-28T07:51:41.997Z,6.03
2017-11-28T07:54:09.921Z,6.23
2017-11-28T07:56:37.255Z,9.80
2017-11-28T07:59:04.862Z,6.30
2017-11-28T08:01:32.541Z,6.50
2017-11-28T08:03:59.845Z,6.43
2017-11-28T08:06:27.192Z,5.37
2017-11-28T08:08:54.885Z,3.37
2017-11-28T08:11:22.616Z,4.60
2017-11-28T08:13:50.246Z,4.40
2017-11-28T08:16:17.550Z,5.07
2017-11-28T08:18:45.234Z,4.60
2017-11-28T08:21:12.836Z,3.90
2017-11-28T08:23:40.644Z,2.73
2017-11-28T08:26:08.015Z,3.37
2017-11-28T08:28:35.315Z,4.10
2017-11-28T08:31:02.969Z,3.23
2017-11-28T08:33:30.698Z,2.90
2017-11-28T08:35:58.355Z,4.90
2017-11-28T08:38:26.045Z,4.13
2017-11-28T08:40:53.674Z,3.27
2017-11-28T08:43:20.994Z,2.90
2017-11-28T08:45:48.289Z,3.27
2017-11-28T08:48:15.972Z,2.40
2017-11-28T08:50:43.302Z,3.07
2017-11-28T08:53:11.083Z,2.43
2017-11-28T08:55:38.383Z,3.00
2017-11-28T08:58:05.693Z,2.57
2017-11-28T09:00:32.990Z,2.63
2017-11-28T09:03:00.315Z,3.27
2017-11-28T09:05:27.646Z,4.03
2017-11-28T09:07:55.009Z,2.60
2017-11-28T09:10:22.676Z,3.20
2017-11-28T09:12:49.971Z,3.70
2017-11-28T09:15:17.311Z,2.70
2017-11-28T09:17:44.794Z,2.50
2017-11-28T09:20:12.100Z,5.53
2017-11-28T09:22:39.438Z,3.93
2017-11-28T09:25:06.796Z,2.87
2017-11-28T09:27:34.445Z,3.13
2017-11-28T09:30:01.768Z,4.00
2017-11-28T09:32:29.082Z,3.73
2017-11-28T09:34:56.517Z,3.07
2017-11-28T09:37:23.810Z,2.87
2017-11-28T09:39:51.428Z,4.93
2017-11-28T09:42:18.721Z,3.17
2017-11-28T09:44:46.335Z,3.10
2017-11-28T09:47:13.629Z,2.80
2017-11-28T09:49:41.271Z,3.40
2017-11-28T09:52:08.934Z,3.20
2017-11-28T09:54:36.298Z,4.07
2017-11-28T09:57:03.919Z,2.80
2017-11-28T09:59:31.596Z,3.50
2017-11-28T10:01:58.928Z,3.50
2017-11-28T10:04:26.612Z,4.70
2017-11-28T10:06:53.923Z,3.60
2017-11-28T10:09:21.219Z,3.57
2017-11-28T10:11:48.516Z,2.90
2017-11-28T10:14:15.813Z,3.50
2017-11-28T10:16:43.499Z,2.93
2017-11-28T10:19:10.803Z,3.00
2017-11-28T10:21:38.109Z,4.27
2017-11-28T10:24:05.744Z,2.80
2017-11-28T10:26:33.062Z,4.57
2017-11-28T10:29:00.357Z,2.67
2017-11-28T10:31:28.022Z,3.47
2017-11-28T10:33:55.338Z,7.47
2017-11-28T10:36:22.645Z,2.70
2017-11-28T10:38:50.286Z,3.37
2017-11-28T10:41:17.588Z,3.87
2017-11-28T10:43:45.202Z,2.70
2017-11-28T10:46:12.503Z,2.43
2017-11-28T10:48:39.810Z,4.40
2017-11-28T10:51:07.112Z,3.10
2017-11-28T10:53:34.839Z,3.10
2017-11-28T10:56:02.186Z,2.10
2017-11-28T10:58:29.520Z,4.07
2017-11-28T11:00:57.766Z,2.67
2017-11-28T11:03:25.079Z,2.23
2017-11-28T11:05:53.479Z,1.90
2017-11-28T11:08:21.014Z,3.60
2017-11-28T11:10:48.664Z,1.57
2017-11-28T11:13:15.973Z,5.17
2017-11-28T11:15:43.282Z,3.13
2017-11-28T11:18:10.579Z,3.77
2017-11-28T11:20:37.881Z,2.93
2017-11-28T11:23:05.184Z,7.23
2017-11-28T11:25:32.503Z,2.20
2017-11-28T11:28:00.141Z,3.10
2017-11-28T11:30:27.585Z,2.87
2017-11-28T11:32:55.245Z,6.30
2017-11-28T11:35:22.638Z,5.70
2017-11-28T11:37:50.075Z,2.60
2017-11-28T11:40:17.398Z,2.60
2017-11-28T11:42:45.113Z,2.20
2017-11-28T11:45:13.196Z,2.40
2017-11-28T11:47:40.787Z,3.57
2017-11-28T11:50:08.092Z,2.20
2017-11-28T11:52:35.440Z,2.40
2017-11-28T11:55:02.757Z,3.63
2017-11-28T11:57:30.062Z,3.40
2017-11-28T11:59:57.817Z,4.17
2017-11-28T12:02:25.445Z,2.60
2017-11-28T12:04:53.112Z,2.83
2017-11-28T12:07:20.788Z,2.67
2017-11-28T12:09:48.124Z,6.20
2017-11-28T12:12:15.492Z,3.35
2017-11-28T12:14:43.255Z,4.80
2017-11-28T12:17:10.635Z,2.20
2017-11-28T12:19:38.055Z,3.50
2017-11-28T12:22:05.771Z,7.60
2017-11-28T12:24:33.376Z,3.70
2017-11-28T12:27:01.062Z,4.10
2017-11-28T12:29:28.373Z,6.03
2017-11-28T12:31:56.270Z,5.77
2017-11-28T12:34:23.582Z,3.40
2017-11-28T12:36:50.911Z,2.70
2017-11-28T12:39:18.735Z,7.17
2017-11-28T12:41:46.613Z,6.40
2017-11-28T12:44:13.924Z,3.37
2017-11-28T12:46:41.240Z,3.00
2017-11-28T12:49:08.930Z,2.50
2017-11-28T12:51:36.237Z,5.60
2017-11-28T12:54:03.550Z,11.40
2017-11-28T12:56:30.866Z,6.37
2017-11-28T12:58:58.157Z,3.87
2017-11-28T13:01:25.462Z,3.00
2017-11-28T13:03:52.807Z,3.77
2017-11-28T13:06:20.097Z,3.30
2017-11-28T13:08:47.419Z,4.03
2017-11-28T13:11:14.718Z,4.77
2017-11-28T13:13:42.174Z,2.97
2017-11-28T13:16:09.469Z,4.07
2017-11-28T13:18:37.503Z,4.13
2017-11-28T13:21:04.842Z,3.00
2017-11-28T13:23:32.644Z,4.13
2017-11-28T13:26:00.567Z,4.63
2017-11-28T13:28:28.079Z,4.67
2017-11-28T13:30:55.402Z,4.47
2017-11-28T13:33:22.841Z,4.80
2017-11-28T13:35:50.452Z,3.20
2017-11-28T13:38:20.207Z,3.30
2017-11-28T13:40:47.843Z,3.70
2017-11-28T13:43:15.276Z,5.77
2017-11-28T13:45:44.186Z,5.57
2017-11-28T13:48:11.491Z,6.70
2017-11-28T13:50:38.866Z,3.60
2017-11-28T13:53:06.163Z,5.80
2017-11-28T13:55:33.982Z,3.47
2017-11-28T13:58:01.681Z,7.03
2017-11-28T14:00:28.984Z,5.00
2017-11-28T14:02:56.292Z,4.60
2017-11-28T14:05:24.132Z,3.47
2017-11-28T14:07:52.001Z,4.77
2017-11-28T14:10:19.886Z,7.10
2017-11-28T14:12:47.741Z,4.67
2017-11-28T14:15:15.099Z,3.70
2017-11-28T14:17:42.396Z,3.60
2017-11-28T14:20:25.337Z,5.50
2017-11-28T14:22:58.925Z,4.43
2017-11-28T14:25:30.976Z,3.17
2017-11-28T14:27:59.579Z,3.60
2017-11-28T14:30:46.677Z,5.23
2017-11-28T14:33:15.278Z,9.47
2017-11-28T14:35:57.445Z,6.90
2017-11-28T14:38:24.892Z,8.77
2017-11-28T14:40:52.668Z,8.40
2017-11-28T14:43:20.012Z,5.03
2017-11-28T14:45:51.586Z,7.75
2017-11-28T14:48:19.402Z,6.87
2017-11-28T14:50:53.016Z,11.40
2017-11-28T14:53:25.062Z,10.60
2017-11-28T14:56:01.600Z,10.35
2017-11-28T14:58:45.840Z,5.83
2017-11-28T15:01:19.166Z,5.37
2017-11-28T15:04:00.194Z,4.97
2017-11-28T15:06:43.010Z,4.67
2017-11-28T15:09:16.496Z,4.33
2017-11-28T15:11:49.462Z,4.77
2017-11-28T15:14:23.133Z,5.97
2017-11-28T15:16:56.796Z,6.03
2017-11-28T15:19:24.652Z,6.60
2017-11-28T15:21:52.675Z,7.07
2017-11-28T15:24:21.274Z,9.60
2017-11-28T15:26:49.164Z,7.03
2017-11-28T15:29:19.116Z,5.80
2017-11-28T15:31:46.967Z,4.90
2017-11-28T15:34:14.799Z,4.80
2017-11-28T15:36:42.912Z,4.60
2017-11-28T15:39:10.659Z,4.50
2017-11-28T15:41:37.972Z,8.07
2017-11-28T15:44:05.647Z,4.60
2017-11-28T15:46:33.334Z,3.70
2017-11-28T15:49:00.990Z,4.43
2017-11-28T15:51:28.292Z,5.87
2017-11-28T15:53:55.611Z,6.10
2017-11-28T15:56:23.267Z,7.60
2017-11-28T15:58:50.576Z,9.23
2017-11-28T16:01:17.873Z,8.73
2017-11-28T16:03:45.197Z,13.23
2017-11-28T16:06:12.897Z,8.60
2017-11-28T16:08:40.537Z,16.50
2017-11-28T16:11:07.866Z,11.93
2017-11-28T16:13:35.547Z,10.20
2017-11-28T16:16:02.872Z,9.75
2017-11-28T16:18:30.209Z,14.87
2017-11-28T16:20:57.527Z,15.03
2017-11-28T16:23:25.178Z,10.70
2017-11-28T16:25:52.491Z,13.83
2017-11-28T16:28:19.911Z,17.17
2017-11-28T16:30:47.737Z,9.37
2017-11-28T16:33:15.058Z,7.97
2017-11-28T16:35:42.355Z,6.40
2017-11-28T16:38:10.210Z,7.50
2017-11-28T16:40:37.664Z,9.87
2017-11-28T16:43:05.398Z,10.57
2017-11-28T16:45:32.707Z,11.90
2017-11-28T16:48:00.022Z,11.00
2017-11-28T16:50:27.527Z,8.03
2017-11-28T16:52:55.760Z,9.50
2017-11-28T16:55:23.466Z,8.00
2017-11-28T16:57:50.775Z,12.23
2017-11-28T17:00:18.261Z,8.43
2017-11-28T17:02:45.909Z,4.70
2017-11-28T17:05:13.294Z,5.23
2017-11-28T17:07:40.929Z,5.27
2017-11-28T17:10:08.656Z,8.40
2017-11-28T17:12:36.005Z,8.40
2017-11-28T17:15:03.714Z,11.17
2017-11-28T17:17:31.054Z,9.90
2017-11-28T17:19:58.729Z,10.80
2017-11-28T17:22:26.068Z,12.83
2017-11-28T17:24:53.378Z,11.50
2017-11-28T17:27:20.988Z,11.43
2017-11-28T17:29:48.327Z,14.90
2017-11-28T17:32:15.713Z,12.20
2017-11-28T17:34:43.009Z,8.80
2017-11-28T17:37:10.358Z,9.43
2017-11-28T17:39:38.079Z,8.70
2017-11-28T17:42:05.404Z,12.53
2017-11-28T17:44:33.958Z,7.00
2017-11-28T17:47:01.581Z,7.57
2017-11-28T17:49:29.232Z,13.40
2017-11-28T17:51:56.622Z,8.73
2017-11-28T17:54:23.925Z,8.77
2017-11-28T17:56:51.613Z,7.23
2017-11-28T17:59:18.925Z,10.10
2017-11-28T18:01:46.377Z,10.13
2017-11-28T18:04:14.070Z,11.35
2017-11-28T18:06:41.452Z,14.80
2017-11-28T18:09:08.967Z,10.93
2017-11-28T18:11:38.171Z,9.30
2017-11-28T18:14:06.052Z,11.57
2017-11-28T18:16:33.764Z,9.55
2017-11-28T18:19:01.460Z,8.10
2017-11-28T18:21:29.151Z,10.35
2017-11-28T18:23:56.490Z,8.63
2017-11-28T18:26:23.869Z,12.23
2017-11-28T18:28:51.421Z,9.80
2017-11-28T18:31:18.835Z,6.30
2017-11-28T18:33:46.154Z,6.65
2017-11-28T18:36:13.587Z,10.60
2017-11-28T18:38:40.980Z,9.35
2017-11-28T18:41:08.585Z,10.90
2017-11-28T18:43:36.281Z,13.55
2017-11-28T18:46:04.485Z,9.67
2017-11-28T18:48:31.855Z,7.80
2017-11-28T18:50:59.539Z,15.40
2017-11-28T18:53:27.105Z,10.47
2017-11-28T18:55:54.448Z,7.83
2017-11-28T18:58:22.115Z,13.43
2017-11-28T19:00:49.510Z,10.00
2017-11-28T19:03:16.845Z,9.57
2017-11-28T19:05:44.175Z,7.13
2017-11-28T19:08:11.865Z,6.15
2017-11-28T19:10:40.485Z,9.27
2017-11-28T19:13:08.157Z,8.60
2017-11-28T19:15:35.468Z,9.00
2017-11-28T19:18:03.100Z,9.50
2017-11-28T19:20:30.413Z,8.47
2017-11-28T19:22:57.737Z,13.97
2017-11-28T19:25:25.173Z,6.80
2017-11-28T19:27:52.482Z,9.97
2017-11-28T19:30:19.810Z,6.67
2017-11-28T19:32:47.678Z,6.67
2017-11-28T19:35:15.797Z,8.67
2017-11-28T19:37:43.710Z,8.67
2017-11-28T19:40:11.008Z,9.97
2017-11-28T19:42:38.743Z,12.67
2017-11-28T19:45:06.524Z,7.90
2017-11-28T19:47:34.129Z,9.75
2017-11-28T19:50:01.835Z,10.27
2017-11-28T19:52:29.249Z,11.70
2017-11-28T19:54:56.570Z,11.70
2017-11-28T19:57:23.962Z,12.03
2017-11-28T19:59:51.313Z,11.13
2017-11-28T20:02:19.218Z,14.20
2017-11-28T20:04:46.953Z,10.23
2017-11-28T20:07:14.668Z,11.17
2017-11-28T20:09:42.057Z,15.57
2017-11-28T20:12:09.369Z,8.27
2017-11-28T20:14:36.674Z,9.93
2017-11-28T20:17:03.996Z,8.70
2017-11-28T20:19:31.285Z,9.50
2017-11-28T20:21:59.410Z,14.70
2017-11-28T20:24:26.723Z,9.20
2017-11-28T20:26:54.582Z,9.83
2017-11-28T20:29:22.250Z,9.90
2017-11-28T20:31:50.035Z,11.07
2017-11-28T20:34:17.661Z,9.40
2017-11-28T20:36:44.965Z,9.60
2017-11-28T20:39:12.273Z,12.17
2017-11-28T20:41:39.974Z,14.23
2017-11-28T20:44:07.330Z,13.50
2017-11-28T20:46:34.645Z,18.20
2017-11-28T20:49:07.981Z,16.30
2017-11-28T20:51:35.291Z,17.15
2017-11-28T20:54:02.669Z,23.75
2017-11-28T20:56:30.317Z,18.77
2017-11-28T20:58:57.961Z,21.17
2017-11-28T21:01:25.288Z,14.67
2017-11-28T21:03:52.959Z,14.50
2017-11-28T21:06:20.329Z,18.50
2017-11-28T21:08:47.971Z,20.73
2017-11-28T21:11:15.371Z,12.40
2017-11-28T21:13:42.828Z,13.13
2017-11-28T21:16:10.453Z,18.20
2017-11-28T21:18:37.833Z,19.00
2017-11-28T21:21:05.465Z,20.20
2017-11-28T21:23:33.159Z,14.60
2017-11-28T21:26:00.785Z,12.47
2017-11-28T21:28:28.111Z,19.17
2017-11-28T21:30:55.419Z,17.33
2017-11-28T21:33:22.821Z,12.83
2017-11-28T21:35:50.137Z,11.07
2017-11-28T21:38:17.774Z,13.63
2017-11-28T21:40:45.461Z,12.90
2017-11-28T21:43:13.093Z,10.53
2017-11-28T21:45:46.001Z,10.97
2017-11-28T21:48:18.898Z,15.17
2017-11-28T21:50:51.831Z,13.63
2017-11-28T21:53:22.550Z,11.10
2017-11-28T21:55:49.994Z,9.90
2017-11-28T21:58:17.299Z,9.13
2017-11-28T22:00:44.605Z,10.07
2017-11-28T22:03:11.945Z,15.50
2017-11-28T22:05:39.552Z,13.60
2017-11-28T22:08:07.329Z,13.87
2017-11-28T22:10:34.703Z,12.60
2017-11-28T22:13:02.381Z,11.60
2017-11-28T22:15:30.100Z,9.90
2017-11-28T22:17:57.801Z,12.97
2017-11-28T22:20:25.790Z,12.05
2017-11-28T22:22:53.098Z,11.00
2017-11-28T22:25:20.866Z,12.27
2017-11-28T22:27:48.167Z,13.70
2017-11-28T22:30:15.497Z,12.63
2017-11-28T22:32:43.134Z,14.10
2017-11-28T22:35:10.461Z,11.50
2017-11-28T22:37:38.244Z,13.90
2017-11-28T22:40:05.546Z,12.83
2017-11-28T22:42:32.886Z,11.93
2017-11-28T22:45:00.616Z,14.57
2017-11-28T22:47:28.006Z,15.90
2017-11-28T22:49:55.320Z,13.50
2017-11-28T22:52:22.794Z,14.40
2017-11-28T22:54:50.104Z,14.03
2017-11-28T22:57:17.426Z,14.80
2017-11-28T22:59:44.852Z,13.85
2017-11-28T23:02:12.303Z,13.57
2017-11-28T23:04:39.625Z,15.60
2017-11-28T23:07:07.507Z,19.10
2017-11-28T23:09:34.906Z,13.83
2017-11-28T23:12:03.266Z,18.13
2017-11-28T23:14:33.401Z,17.15
2017-11-28T23:17:01.327Z,15.85
2017-11-28T23:19:29.289Z,11.87
2017-11-28T23:21:57.090Z,13.20
2017-11-28T23:24:24.438Z,13.73
2017-11-28T23:26:51.936Z,11.87
2017-11-28T23:29:19.855Z,14.50
2017-11-28T23:31:47.669Z,11.50
2017-11-28T23:34:16.423Z,14.90
2017-11-28T23:36:43.742Z,14.00
2017-11-28T23:39:11.713Z,12.75
2017-11-28T23:41:39.801Z,16.73
2017-11-28T23:44:08.305Z,12.50
2017-11-28T23:46:35.853Z,14.03
2017-11-28T23:49:03.176Z,11.77
2017-11-28T23:51:31.051Z,10.93
2017-11-28T23:53:59.056Z,11.70
2017-11-28T23:56:26.713Z,14.77
2017-11-28T23:58:54.245Z,13.10
